Aviation Digital Data Service (ADDS)

Output produced by METARs form (0316 UTC 31 March 2015)
found at http://www.aviationweather.gov/adds/metars/
 
KIPT 310254Z AUTO 31010KT 10SM -RA OVC055 06/M01 A2989 RMK AO2 RAB49 SLP126 P0000 60000 T00611006 51020
KIPT 310154Z 29010G16KT 10SM OVC065 07/M01 A2989 RMK AO2 SLP125 T00671011
KIPT 310054Z 30014G20KT 10SM FEW055 OVC070 08/M03 A2987 RMK AO2 SLP117 T00781033
KIPT 302354Z 31010KT 10SM BKN070 BKN080 08/M06 A2983 RMK AO2 PK WND 29028/2314 SLP106 60000 T00831056 10122 20083 53013
KIPT 302254Z 30013G20KT 10SM BKN075 OVC090 10/M07 A2982 RMK AO2 SLP099 T01001067
KIPT 302154Z 27015G28KT 10SM BKN080 BKN090 11/M07 A2979 RMK AO2 PK WND 27028/2145 SLP091 T01061067
KIPT 302054Z 27014G22KT 10SM FEW070 BKN090 11/M06 A2980 RMK AO2 SLP092 60000 T01061056 56010
KIPT 301954Z 26013G20KT 10SM SCT060 OVC080 11/M03 A2980 RMK AO2 PK WND 27028/1900 RAB03E15 SLP095 P0000 T01061033
KIPT 301854Z 29012G22KT 10SM SCT055 OVC070 10/M03 A2982 RMK AO2 SLP099 T01001033
KIPT 301754Z 27015G23KT 10SM BKN055 OVC070 09/M04 A2983 RMK AO2 PK WND 29028/1704 SLP102 60000 T00891039 10089 20022 53004
KIPT 301654Z 29014G24KT 10SM SCT045 OVC050 08/M03 A2982 RMK AO2 SLP100 T00831028
KIPT 301554Z 28011KT 10SM BKN047 OVC055 08/M01 A2981 RMK AO2 SLP098 T00781006
KIPT 301454Z 28009KT 10SM OVC055 06/01 A2981 RMK AO2 RAB1357E10 SLP099 P0000 60000 T00610011 53002
KIPT 301429Z VRB05KT 10SM SCT018 BKN045 OVC055 04/01 A2982 RMK AO2 RAB1357E10 P0000 T00440011
KIPT 301354Z 34006KT 10SM BKN021 OVC027 04/00 A2981 RMK AO2 SLP098 T00440000
KIPT 301254Z VRB03KT 10SM OVC022 04/M01 A2980 RMK AO2 RAB01E10 SLP094 P0000 T00391006
KIPT 301154Z VRB03KT 10SM OVC024 03/M02 A2981 RMK AO2 SLP097 T00281017 10044 20022 56004
KIPT 301054Z VRB04KT 10SM OVC028 03/M02 A2981 RMK AO2 SLP097 T00281017
KIPT 301049Z 11005KT 10SM OVC028 03/M02 A2981 RMK AO2
KIPT 300954Z AUTO 17008KT 10SM OVC033 03/M02 A2982 RMK AO2 SLP101 T00281017
KIPT 300854Z AUTO 23007G15KT 190V250 10SM OVC036 04/M07 A2985 RMK AO2 PK WND 22027/0810 SLP111 T00391067 56037
KIPT 300754Z AUTO 17015G23KT 10SM OVC048 04/M09 A2988 RMK AO2 SLP120 T00391089
KIPT 300654Z AUTO 14013G20KT 10SM OVC055 04/M13 A2990 RMK AO2 PRESFR SLP128 T00391133
KIPT 300554Z AUTO 15009G18KT 10SM SCT060 OVC080 04/M14 A2996 RMK AO2 SLP148 T00441139 10056 20039 56017
KIPT 300454Z AUTO 16008G17KT 130V190 10SM OVC095 04/M13 A2997 RMK AO2 SLP152 T00441133 400831072
KIPT 300354Z AUTO 16014G21KT 10SM BKN110 04/M13 A3000 RMK AO2 SLP162 T00441133
KIPT 300254Z AUTO 16022G27KT 10SM CLR 04/M14 A3001 RMK AO2 PK WND 15027/0254 SLP167 T00441139 58021
KIPT 300154Z 16014G21KT 10SM CLR 05/M14 A3003 RMK AO2 SLP173 T00501139
KIPT 300054Z VRB06KT 10SM CLR 04/M13 A3006 RMK AO2 SLP186 T00391133
KIPT 292354Z 21010G16KT 10SM CLR 06/M15 A3007 RMK AO2 SLP189 T00561150 10083 20039 56029
KIPT 292254Z 20009G14KT 10SM CLR 06/M17 A3008 RMK AO2 SLP192 T00611167
KIPT 292154Z VRB04KT 10SM CLR 07/M17 A3011 RMK AO2 SLP201 T00721167
KIPT 292054Z 00000KT 10SM CLR 07/M15 A3016 RMK AO2 SLP219 T00721150 56033
KIPT 291954Z 26006KT 10SM CLR 07/M15 A3017 RMK AO2 SLP224 T00721150
KIPT 291854Z 28005G14KT 10SM CLR 06/M14 A3021 RMK AO2 SLP236 T00611144
KIPT 291754Z VRB03KT 10SM CLR 04/M14 A3026 RMK AO2 SLP252 T00391144 10044 21061 58026
KIPT 291654Z 26007KT 10SM CLR 03/M14 A3029 RMK AO2 SLP264 T00281139
KIPT 291554Z VRB05KT 10SM CLR 01/M14 A3031 RMK AO2 SLP270 T00111139